sensor_id;sensor_type;location;lat;lon;timestamp;P1;durP1;ratioP1;P2;durP2;ratioP2
53207;SDS011;39093;52.788;6.940;2023-08-31T00:01:36;8.98;;;4.38;;
53207;SDS011;39093;52.788;6.940;2023-08-31T00:04:04;16.00;;;4.65;;
53207;SDS011;39093;52.788;6.940;2023-08-31T00:06:33;13.52;;;5.32;;
53207;SDS011;39093;52.788;6.940;2023-08-31T00:09:00;11.93;;;4.03;;
53207;SDS011;39093;52.788;6.940;2023-08-31T00:11:27;12.40;;;4.32;;
53207;SDS011;39093;52.788;6.940;2023-08-31T00:13:53;10.35;;;4.13;;
53207;SDS011;39093;52.788;6.940;2023-08-31T00:16:23;11.90;;;4.10;;
53207;SDS011;39093;52.788;6.940;2023-08-31T00:18:52;10.63;;;3.53;;
53207;SDS011;39093;52.788;6.940;2023-08-31T00:21:23;9.77;;;3.22;;
53207;SDS011;39093;52.788;6.940;2023-08-31T00:23:51;6.45;;;3.17;;
53207;SDS011;39093;52.788;6.940;2023-08-31T00:26:18;8.88;;;3.30;;
53207;SDS011;39093;52.788;6.940;2023-08-31T00:28:44;12.40;;;4.00;;
53207;SDS011;39093;52.788;6.940;2023-08-31T00:31:11;5.53;;;2.85;;
53207;SDS011;39093;52.788;6.940;2023-08-31T00:33:38;12.48;;;3.42;;
53207;SDS011;39093;52.788;6.940;2023-08-31T00:36:08;9.88;;;2.83;;
53207;SDS011;39093;52.788;6.940;2023-08-31T00:38:35;7.78;;;2.67;;
53207;SDS011;39093;52.788;6.940;2023-08-31T00:41:02;11.30;;;3.38;;
53207;SDS011;39093;52.788;6.940;2023-08-31T00:43:29;12.57;;;3.58;;
53207;SDS011;39093;52.788;6.940;2023-08-31T00:45:57;7.35;;;2.30;;
53207;SDS011;39093;52.788;6.940;2023-08-31T00:48:25;11.95;;;2.70;;
53207;SDS011;39093;52.788;6.940;2023-08-31T00:50:52;8.63;;;2.90;;
53207;SDS011;39093;52.788;6.940;2023-08-31T00:53:20;9.02;;;3.33;;
53207;SDS011;39093;52.788;6.940;2023-08-31T00:55:50;8.30;;;2.95;;
53207;SDS011;39093;52.788;6.940;2023-08-31T00:58:17;5.07;;;2.67;;
53207;SDS011;39093;52.788;6.940;2023-08-31T01:06:18;10.18;;;3.60;;
53207;SDS011;39093;52.788;6.940;2023-08-31T01:12:03;12.32;;;3.70;;
53207;SDS011;39093;52.788;6.940;2023-08-31T01:14:48;9.73;;;4.45;;
53207;SDS011;39093;52.788;6.940;2023-08-31T01:17:25;10.70;;;4.05;;
53207;SDS011;39093;52.788;6.940;2023-08-31T01:19:57;8.63;;;3.58;;
53207;SDS011;39093;52.788;6.940;2023-08-31T01:25:18;8.18;;;3.08;;
53207;SDS011;39093;52.788;6.940;2023-08-31T01:27:45;10.18;;;3.70;;
53207;SDS011;39093;52.788;6.940;2023-08-31T01:30:12;8.73;;;4.20;;
53207;SDS011;39093;52.788;6.940;2023-08-31T01:32:44;7.55;;;4.00;;
53207;SDS011;39093;52.788;6.940;2023-08-31T01:35:14;8.65;;;3.75;;
53207;SDS011;39093;52.788;6.940;2023-08-31T01:37:50;7.47;;;3.60;;
53207;SDS011;39093;52.788;6.940;2023-08-31T01:42:58;9.00;;;3.40;;
53207;SDS011;39093;52.788;6.940;2023-08-31T01:45:27;12.95;;;3.65;;
53207;SDS011;39093;52.788;6.940;2023-08-31T01:47:57;9.13;;;4.10;;
53207;SDS011;39093;52.788;6.940;2023-08-31T01:50:24;9.60;;;3.58;;
53207;SDS011;39093;52.788;6.940;2023-08-31T01:52:51;8.80;;;3.70;;
53207;SDS011;39093;52.788;6.940;2023-08-31T01:55:22;11.68;;;3.78;;
53207;SDS011;39093;52.788;6.940;2023-08-31T01:57:50;9.35;;;3.58;;
53207;SDS011;39093;52.788;6.940;2023-08-31T02:00:17;10.73;;;4.07;;
53207;SDS011;39093;52.788;6.940;2023-08-31T02:02:45;6.18;;;3.10;;
53207;SDS011;39093;52.788;6.940;2023-08-31T02:05:12;9.48;;;4.10;;
53207;SDS011;39093;52.788;6.940;2023-08-31T02:07:42;10.15;;;3.75;;
53207;SDS011;39093;52.788;6.940;2023-08-31T02:10:10;8.73;;;3.60;;
53207;SDS011;39093;52.788;6.940;2023-08-31T02:12:37;9.27;;;4.05;;
53207;SDS011;39093;52.788;6.940;2023-08-31T02:15:04;11.07;;;4.03;;
53207;SDS011;39093;52.788;6.940;2023-08-31T02:17:33;13.73;;;4.07;;
53207;SDS011;39093;52.788;6.940;2023-08-31T02:20:01;9.35;;;3.95;;
53207;SDS011;39093;52.788;6.940;2023-08-31T02:22:36;7.32;;;3.85;;
53207;SDS011;39093;52.788;6.940;2023-08-31T02:25:03;11.25;;;4.10;;
53207;SDS011;39093;52.788;6.940;2023-08-31T02:27:30;7.93;;;4.50;;
53207;SDS011;39093;52.788;6.940;2023-08-31T02:29:58;8.88;;;4.03;;
53207;SDS011;39093;52.788;6.940;2023-08-31T02:32:25;8.50;;;4.00;;
53207;SDS011;39093;52.788;6.940;2023-08-31T02:34:51;11.63;;;5.07;;
53207;SDS011;39093;52.788;6.940;2023-08-31T02:37:19;10.93;;;5.30;;
53207;SDS011;39093;52.788;6.940;2023-08-31T02:39:45;6.95;;;3.75;;
53207;SDS011;39093;52.788;6.940;2023-08-31T02:42:13;7.47;;;4.80;;
53207;SDS011;39093;52.788;6.940;2023-08-31T02:44:41;11.80;;;5.43;;
53207;SDS011;39093;52.788;6.940;2023-08-31T02:47:08;9.63;;;5.57;;
53207;SDS011;39093;52.788;6.940;2023-08-31T02:49:35;13.32;;;5.03;;
53207;SDS011;39093;52.788;6.940;2023-08-31T02:52:02;12.65;;;5.63;;
53207;SDS011;39093;52.788;6.940;2023-08-31T02:54:29;11.40;;;5.03;;
53207;SDS011;39093;52.788;6.940;2023-08-31T02:56:56;14.13;;;5.75;;
53207;SDS011;39093;52.788;6.940;2023-08-31T02:59:23;8.60;;;5.90;;
53207;SDS011;39093;52.788;6.940;2023-08-31T03:01:50;11.77;;;6.28;;
53207;SDS011;39093;52.788;6.940;2023-08-31T03:04:17;15.13;;;6.78;;
53207;SDS011;39093;52.788;6.940;2023-08-31T03:06:44;12.00;;;5.78;;
53207;SDS011;39093;52.788;6.940;2023-08-31T03:09:12;10.13;;;6.25;;
53207;SDS011;39093;52.788;6.940;2023-08-31T03:11:39;11.38;;;6.85;;
53207;SDS011;39093;52.788;6.940;2023-08-31T03:14:07;13.15;;;7.18;;
53207;SDS011;39093;52.788;6.940;2023-08-31T03:16:35;13.52;;;7.78;;
53207;SDS011;39093;52.788;6.940;2023-08-31T03:19:02;11.43;;;7.57;;
53207;SDS011;39093;52.788;6.940;2023-08-31T03:21:31;12.52;;;8.85;;
53207;SDS011;39093;52.788;6.940;2023-08-31T03:23:58;11.38;;;8.07;;
53207;SDS011;39093;52.788;6.940;2023-08-31T03:26:25;13.27;;;8.13;;
53207;SDS011;39093;52.788;6.940;2023-08-31T03:28:52;10.48;;;7.90;;
53207;SDS011;39093;52.788;6.940;2023-08-31T03:31:19;9.15;;;7.93;;
53207;SDS011;39093;52.788;6.940;2023-08-31T03:33:46;10.50;;;6.93;;
53207;SDS011;39093;52.788;6.940;2023-08-31T03:36:13;14.23;;;9.20;;
53207;SDS011;39093;52.788;6.940;2023-08-31T03:38:40;11.90;;;8.65;;
53207;SDS011;39093;52.788;6.940;2023-08-31T03:41:07;11.02;;;9.07;;
53207;SDS011;39093;52.788;6.940;2023-08-31T03:43:34;11.55;;;7.53;;
53207;SDS011;39093;52.788;6.940;2023-08-31T03:46:01;13.40;;;8.40;;
53207;SDS011;39093;52.788;6.940;2023-08-31T03:48:29;8.85;;;7.28;;
53207;SDS011;39093;52.788;6.940;2023-08-31T03:50:55;8.18;;;7.38;;
53207;SDS011;39093;52.788;6.940;2023-08-31T03:53:22;10.00;;;7.38;;
53207;SDS011;39093;52.788;6.940;2023-08-31T03:55:50;8.60;;;6.93;;
53207;SDS011;39093;52.788;6.940;2023-08-31T03:58:17;13.02;;;7.18;;
53207;SDS011;39093;52.788;6.940;2023-08-31T04:00:44;9.52;;;5.88;;
53207;SDS011;39093;52.788;6.940;2023-08-31T04:03:10;13.43;;;6.60;;
53207;SDS011;39093;52.788;6.940;2023-08-31T04:05:38;8.38;;;5.88;;
53207;SDS011;39093;52.788;6.940;2023-08-31T04:08:05;8.85;;;6.50;;
53207;SDS011;39093;52.788;6.940;2023-08-31T04:10:32;7.82;;;6.50;;
53207;SDS011;39093;52.788;6.940;2023-08-31T04:12:59;10.80;;;5.72;;
53207;SDS011;39093;52.788;6.940;2023-08-31T04:15:26;6.43;;;5.72;;
53207;SDS011;39093;52.788;6.940;2023-08-31T04:17:53;6.88;;;4.57;;
53207;SDS011;39093;52.788;6.940;2023-08-31T04:20:20;8.93;;;6.13;;
53207;SDS011;39093;52.788;6.940;2023-08-31T04:22:47;7.88;;;6.00;;
53207;SDS011;39093;52.788;6.940;2023-08-31T04:25:14;7.40;;;5.28;;
53207;SDS011;39093;52.788;6.940;2023-08-31T04:27:43;10.73;;;5.43;;
53207;SDS011;39093;52.788;6.940;2023-08-31T04:30:11;7.72;;;5.90;;
53207;SDS011;39093;52.788;6.940;2023-08-31T04:32:38;7.20;;;5.45;;
53207;SDS011;39093;52.788;6.940;2023-08-31T04:35:05;5.70;;;4.75;;
53207;SDS011;39093;52.788;6.940;2023-08-31T04:37:33;7.35;;;5.07;;
53207;SDS011;39093;52.788;6.940;2023-08-31T04:40:00;6.85;;;5.22;;
53207;SDS011;39093;52.788;6.940;2023-08-31T04:42:40;9.55;;;4.85;;
53207;SDS011;39093;52.788;6.940;2023-08-31T04:45:08;7.95;;;5.13;;
53207;SDS011;39093;52.788;6.940;2023-08-31T04:47:36;7.53;;;4.57;;
53207;SDS011;39093;52.788;6.940;2023-08-31T04:50:03;10.18;;;4.90;;
53207;SDS011;39093;52.788;6.940;2023-08-31T04:52:32;7.50;;;5.25;;
53207;SDS011;39093;52.788;6.940;2023-08-31T04:55:00;5.85;;;5.13;;
53207;SDS011;39093;52.788;6.940;2023-08-31T04:57:29;9.05;;;5.25;;
53207;SDS011;39093;52.788;6.940;2023-08-31T04:59:56;9.23;;;4.97;;
53207;SDS011;39093;52.788;6.940;2023-08-31T05:02:23;6.38;;;4.95;;
53207;SDS011;39093;52.788;6.940;2023-08-31T05:04:50;6.97;;;4.88;;
53207;SDS011;39093;52.788;6.940;2023-08-31T05:07:17;7.75;;;4.75;;
53207;SDS011;39093;52.788;6.940;2023-08-31T05:09:44;7.97;;;4.70;;
53207;SDS011;39093;52.788;6.940;2023-08-31T05:12:11;6.18;;;4.43;;
53207;SDS011;39093;52.788;6.940;2023-08-31T05:14:38;11.32;;;5.55;;
53207;SDS011;39093;52.788;6.940;2023-08-31T05:17:09;5.13;;;4.15;;
53207;SDS011;39093;52.788;6.940;2023-08-31T05:19:36;7.18;;;4.72;;
53207;SDS011;39093;52.788;6.940;2023-08-31T05:22:02;7.25;;;4.80;;
53207;SDS011;39093;52.788;6.940;2023-08-31T05:24:30;7.65;;;4.75;;
53207;SDS011;39093;52.788;6.940;2023-08-31T05:26:57;6.65;;;4.28;;
53207;SDS011;39093;52.788;6.940;2023-08-31T05:29:23;8.25;;;4.57;;
53207;SDS011;39093;52.788;6.940;2023-08-31T05:31:51;9.50;;;6.20;;
53207;SDS011;39093;52.788;6.940;2023-08-31T05:34:20;4.93;;;4.13;;
53207;SDS011;39093;52.788;6.940;2023-08-31T05:36:52;8.98;;;4.18;;
53207;SDS011;39093;52.788;6.940;2023-08-31T05:39:19;7.32;;;4.22;;
53207;SDS011;39093;52.788;6.940;2023-08-31T05:41:46;6.78;;;4.25;;
53207;SDS011;39093;52.788;6.940;2023-08-31T05:44:13;7.03;;;3.80;;
53207;SDS011;39093;52.788;6.940;2023-08-31T05:46:40;9.13;;;3.88;;
53207;SDS011;39093;52.788;6.940;2023-08-31T05:49:07;7.05;;;3.63;;
53207;SDS011;39093;52.788;6.940;2023-08-31T05:51:35;9.90;;;4.20;;
53207;SDS011;39093;52.788;6.940;2023-08-31T05:54:01;9.68;;;4.30;;
53207;SDS011;39093;52.788;6.940;2023-08-31T05:56:29;10.05;;;4.90;;
53207;SDS011;39093;52.788;6.940;2023-08-31T05:58:56;6.65;;;4.10;;
53207;SDS011;39093;52.788;6.940;2023-08-31T06:01:23;9.57;;;4.05;;
53207;SDS011;39093;52.788;6.940;2023-08-31T06:03:53;5.63;;;3.90;;
53207;SDS011;39093;52.788;6.940;2023-08-31T06:06:23;8.63;;;3.63;;
53207;SDS011;39093;52.788;6.940;2023-08-31T06:08:50;4.72;;;3.70;;
53207;SDS011;39093;52.788;6.940;2023-08-31T06:11:17;11.82;;;4.22;;
53207;SDS011;39093;52.788;6.940;2023-08-31T06:13:44;8.77;;;4.07;;
53207;SDS011;39093;52.788;6.940;2023-08-31T06:16:11;8.35;;;4.45;;
53207;SDS011;39093;52.788;6.940;2023-08-31T06:18:38;9.43;;;4.63;;
53207;SDS011;39093;52.788;6.940;2023-08-31T06:21:05;10.50;;;4.13;;
53207;SDS011;39093;52.788;6.940;2023-08-31T06:23:32;7.10;;;3.35;;
53207;SDS011;39093;52.788;6.940;2023-08-31T06:25:59;4.97;;;3.20;;
53207;SDS011;39093;52.788;6.940;2023-08-31T06:28:26;4.75;;;3.40;;
53207;SDS011;39093;52.788;6.940;2023-08-31T06:30:53;5.85;;;3.42;;
53207;SDS011;39093;52.788;6.940;2023-08-31T06:33:19;6.47;;;3.83;;
53207;SDS011;39093;52.788;6.940;2023-08-31T06:35:47;7.97;;;3.47;;
53207;SDS011;39093;52.788;6.940;2023-08-31T06:38:15;7.03;;;4.00;;
53207;SDS011;39093;52.788;6.940;2023-08-31T06:40:42;9.80;;;4.22;;
53207;SDS011;39093;52.788;6.940;2023-08-31T06:43:09;8.63;;;3.60;;
53207;SDS011;39093;52.788;6.940;2023-08-31T06:45:37;8.95;;;3.75;;
53207;SDS011;39093;52.788;6.940;2023-08-31T06:48:04;9.60;;;4.07;;
53207;SDS011;39093;52.788;6.940;2023-08-31T06:50:33;10.15;;;3.85;;
53207;SDS011;39093;52.788;6.940;2023-08-31T06:53:02;10.20;;;4.10;;
53207;SDS011;39093;52.788;6.940;2023-08-31T06:55:29;9.65;;;3.92;;
53207;SDS011;39093;52.788;6.940;2023-08-31T06:57:58;8.98;;;3.97;;
53207;SDS011;39093;52.788;6.940;2023-08-31T07:00:25;8.07;;;3.92;;
53207;SDS011;39093;52.788;6.940;2023-08-31T07:02:52;6.20;;;4.05;;
53207;SDS011;39093;52.788;6.940;2023-08-31T07:05:24;9.32;;;3.58;;
53207;SDS011;39093;52.788;6.940;2023-08-31T07:07:52;11.40;;;4.35;;
53207;SDS011;39093;52.788;6.940;2023-08-31T07:10:21;6.93;;;3.33;;
53207;SDS011;39093;52.788;6.940;2023-08-31T07:12:48;7.60;;;3.63;;
53207;SDS011;39093;52.788;6.940;2023-08-31T07:15:15;5.30;;;3.65;;
53207;SDS011;39093;52.788;6.940;2023-08-31T07:17:43;9.55;;;4.05;;
53207;SDS011;39093;52.788;6.940;2023-08-31T07:20:11;4.80;;;3.17;;
53207;SDS011;39093;52.788;6.940;2023-08-31T07:22:38;6.32;;;2.80;;
53207;SDS011;39093;52.788;6.940;2023-08-31T07:25:15;13.05;;;4.30;;
53207;SDS011;39093;52.788;6.940;2023-08-31T07:27:42;7.95;;;3.10;;
53207;SDS011;39093;52.788;6.940;2023-08-31T07:30:09;5.80;;;2.58;;
53207;SDS011;39093;52.788;6.940;2023-08-31T07:32:37;7.93;;;2.65;;
53207;SDS011;39093;52.788;6.940;2023-08-31T07:35:04;4.07;;;2.33;;
53207;SDS011;39093;52.788;6.940;2023-08-31T07:37:32;6.55;;;2.60;;
53207;SDS011;39093;52.788;6.940;2023-08-31T07:40:00;7.05;;;2.35;;
53207;SDS011;39093;52.788;6.940;2023-08-31T07:42:26;8.05;;;3.25;;
53207;SDS011;39093;52.788;6.940;2023-08-31T07:44:53;8.45;;;2.30;;
53207;SDS011;39093;52.788;6.940;2023-08-31T07:47:20;7.10;;;2.22;;
53207;SDS011;39093;52.788;6.940;2023-08-31T07:49:47;3.78;;;2.47;;
53207;SDS011;39093;52.788;6.940;2023-08-31T07:52:14;3.83;;;2.10;;
53207;SDS011;39093;52.788;6.940;2023-08-31T07:54:41;6.20;;;2.50;;
53207;SDS011;39093;52.788;6.940;2023-08-31T07:57:09;7.35;;;2.22;;
53207;SDS011;39093;52.788;6.940;2023-08-31T07:59:36;6.28;;;2.90;;
53207;SDS011;39093;52.788;6.940;2023-08-31T08:02:06;7.03;;;2.78;;
53207;SDS011;39093;52.788;6.940;2023-08-31T08:04:33;5.38;;;2.22;;
53207;SDS011;39093;52.788;6.940;2023-08-31T08:07:04;7.32;;;2.40;;
53207;SDS011;39093;52.788;6.940;2023-08-31T08:09:30;6.40;;;2.25;;
53207;SDS011;39093;52.788;6.940;2023-08-31T08:11:57;7.72;;;2.20;;
53207;SDS011;39093;52.788;6.940;2023-08-31T08:14:24;6.32;;;2.17;;
53207;SDS011;39093;52.788;6.940;2023-08-31T08:16:51;7.05;;;3.90;;
53207;SDS011;39093;52.788;6.940;2023-08-31T08:19:22;9.43;;;2.00;;
53207;SDS011;39093;52.788;6.940;2023-08-31T08:21:50;8.75;;;2.03;;
53207;SDS011;39093;52.788;6.940;2023-08-31T08:24:17;4.72;;;1.67;;
53207;SDS011;39093;52.788;6.940;2023-08-31T08:26:44;8.23;;;1.77;;
53207;SDS011;39093;52.788;6.940;2023-08-31T08:29:11;10.05;;;3.05;;
53207;SDS011;39093;52.788;6.940;2023-08-31T08:31:38;6.97;;;1.63;;
53207;SDS011;39093;52.788;6.940;2023-08-31T08:34:05;3.80;;;1.20;;
53207;SDS011;39093;52.788;6.940;2023-08-31T08:36:32;3.78;;;1.35;;
53207;SDS011;39093;52.788;6.940;2023-08-31T08:38:59;4.82;;;1.30;;
53207;SDS011;39093;52.788;6.940;2023-08-31T08:41:27;4.25;;;1.30;;
53207;SDS011;39093;52.788;6.940;2023-08-31T08:43:56;7.00;;;1.33;;
53207;SDS011;39093;52.788;6.940;2023-08-31T08:46:30;5.70;;;1.30;;
53207;SDS011;39093;52.788;6.940;2023-08-31T08:48:59;7.78;;;1.70;;
53207;SDS011;39093;52.788;6.940;2023-08-31T08:51:29;6.82;;;1.20;;
53207;SDS011;39093;52.788;6.940;2023-08-31T08:53:58;5.38;;;1.40;;
53207;SDS011;39093;52.788;6.940;2023-08-31T08:56:26;6.03;;;1.13;;
53207;SDS011;39093;52.788;6.940;2023-08-31T08:58:53;5.50;;;1.10;;
53207;SDS011;39093;52.788;6.940;2023-08-31T09:01:21;2.28;;;0.82;;
53207;SDS011;39093;52.788;6.940;2023-08-31T09:03:51;6.57;;;1.17;;
53207;SDS011;39093;52.788;6.940;2023-08-31T09:06:19;3.15;;;0.70;;
53207;SDS011;39093;52.788;6.940;2023-08-31T09:08:52;5.35;;;1.10;;
53207;SDS011;39093;52.788;6.940;2023-08-31T09:11:23;4.70;;;0.85;;
53207;SDS011;39093;52.788;6.940;2023-08-31T09:13:51;14.57;;;3.97;;
53207;SDS011;39093;52.788;6.940;2023-08-31T09:16:25;8.45;;;1.80;;
53207;SDS011;39093;52.788;6.940;2023-08-31T09:18:58;4.45;;;1.38;;
53207;SDS011;39093;52.788;6.940;2023-08-31T09:21:35;4.57;;;1.13;;
53207;SDS011;39093;52.788;6.940;2023-08-31T09:24:04;5.65;;;1.00;;
53207;SDS011;39093;52.788;6.940;2023-08-31T09:26:37;6.65;;;0.93;;
53207;SDS011;39093;52.788;6.940;2023-08-31T09:29:05;5.53;;;1.02;;
53207;SDS011;39093;52.788;6.940;2023-08-31T09:31:33;4.75;;;0.60;;
53207;SDS011;39093;52.788;6.940;2023-08-31T09:34:00;1.98;;;0.70;;
53207;SDS011;39093;52.788;6.940;2023-08-31T09:36:32;1.42;;;0.70;;
53207;SDS011;39093;52.788;6.940;2023-08-31T09:38:59;3.67;;;0.77;;
53207;SDS011;39093;52.788;6.940;2023-08-31T09:41:26;3.60;;;0.80;;
53207;SDS011;39093;52.788;6.940;2023-08-31T09:43:53;3.85;;;1.00;;
53207;SDS011;39093;52.788;6.940;2023-08-31T09:46:20;2.85;;;0.55;;
53207;SDS011;39093;52.788;6.940;2023-08-31T09:48:48;2.80;;;0.57;;
53207;SDS011;39093;52.788;6.940;2023-08-31T09:51:16;4.00;;;0.70;;
53207;SDS011;39093;52.788;6.940;2023-08-31T09:53:50;2.75;;;0.60;;
53207;SDS011;39093;52.788;6.940;2023-08-31T09:56:20;2.75;;;0.60;;
53207;SDS011;39093;52.788;6.940;2023-08-31T09:58:50;1.00;;;0.52;;
53207;SDS011;39093;52.788;6.940;2023-08-31T10:01:18;4.20;;;0.85;;
53207;SDS011;39093;52.788;6.940;2023-08-31T10:03:55;3.35;;;0.93;;
53207;SDS011;39093;52.788;6.940;2023-08-31T10:06:22;3.83;;;0.70;;
53207;SDS011;39093;52.788;6.940;2023-08-31T10:08:50;2.72;;;0.98;;
53207;SDS011;39093;52.788;6.940;2023-08-31T10:11:18;4.28;;;0.60;;
53207;SDS011;39093;52.788;6.940;2023-08-31T10:13:45;4.82;;;0.70;;
53207;SDS011;39093;52.788;6.940;2023-08-31T10:16:15;4.45;;;0.77;;
53207;SDS011;39093;52.788;6.940;2023-08-31T10:18:43;2.03;;;0.50;;
53207;SDS011;39093;52.788;6.940;2023-08-31T10:21:11;4.07;;;0.60;;
53207;SDS011;39093;52.788;6.940;2023-08-31T10:23:45;4.15;;;0.55;;
53207;SDS011;39093;52.788;6.940;2023-08-31T10:28:49;2.47;;;0.73;;
53207;SDS011;39093;52.788;6.940;2023-08-31T10:31:18;4.97;;;0.90;;
53207;SDS011;39093;52.788;6.940;2023-08-31T10:33:56;3.03;;;0.60;;
53207;SDS011;39093;52.788;6.940;2023-08-31T10:36:34;3.55;;;0.98;;
53207;SDS011;39093;52.788;6.940;2023-08-31T10:39:12;3.05;;;0.63;;
53207;SDS011;39093;52.788;6.940;2023-08-31T10:41:40;2.35;;;0.80;;
53207;SDS011;39093;52.788;6.940;2023-08-31T10:44:20;4.40;;;0.77;;
53207;SDS011;39093;52.788;6.940;2023-08-31T10:46:52;5.70;;;0.85;;
53207;SDS011;39093;52.788;6.940;2023-08-31T10:49:21;3.10;;;0.77;;
53207;SDS011;39093;52.788;6.940;2023-08-31T10:51:56;4.70;;;0.70;;
53207;SDS011;39093;52.788;6.940;2023-08-31T10:54:30;4.38;;;1.08;;
53207;SDS011;39093;52.788;6.940;2023-08-31T10:57:04;7.57;;;0.90;;
53207;SDS011;39093;52.788;6.940;2023-08-31T10:59:51;2.05;;;0.60;;
53207;SDS011;39093;52.788;6.940;2023-08-31T11:02:37;5.28;;;0.75;;
53207;SDS011;39093;52.788;6.940;2023-08-31T11:05:06;2.00;;;0.63;;
53207;SDS011;39093;52.788;6.940;2023-08-31T11:07:36;2.20;;;0.60;;
53207;SDS011;39093;52.788;6.940;2023-08-31T11:10:08;2.75;;;0.70;;
53207;SDS011;39093;52.788;6.940;2023-08-31T11:12:50;4.05;;;0.82;;
53207;SDS011;39093;52.788;6.940;2023-08-31T11:15:21;2.10;;;0.65;;
53207;SDS011;39093;52.788;6.940;2023-08-31T11:17:53;7.87;;;1.50;;
53207;SDS011;39093;52.788;6.940;2023-08-31T11:20:23;6.53;;;0.80;;
53207;SDS011;39093;52.788;6.940;2023-08-31T11:22:55;4.35;;;0.82;;
53207;SDS011;39093;52.788;6.940;2023-08-31T11:25:23;7.28;;;0.88;;
53207;SDS011;39093;52.788;6.940;2023-08-31T11:27:55;6.07;;;0.88;;
53207;SDS011;39093;52.788;6.940;2023-08-31T11:30:27;8.13;;;1.20;;
53207;SDS011;39093;52.788;6.940;2023-08-31T11:33:01;5.88;;;1.35;;
53207;SDS011;39093;52.788;6.940;2023-08-31T11:35:34;6.90;;;1.52;;
53207;SDS011;39093;52.788;6.940;2023-08-31T11:38:03;10.15;;;1.73;;
53207;SDS011;39093;52.788;6.940;2023-08-31T11:40:31;6.22;;;1.30;;
53207;SDS011;39093;52.788;6.940;2023-08-31T11:42:58;7.47;;;1.20;;
53207;SDS011;39093;52.788;6.940;2023-08-31T11:45:30;6.45;;;1.73;;
53207;SDS011;39093;52.788;6.940;2023-08-31T11:47:58;3.05;;;0.93;;
53207;SDS011;39093;52.788;6.940;2023-08-31T11:50:25;3.63;;;1.15;;
53207;SDS011;39093;52.788;6.940;2023-08-31T11:52:54;6.93;;;1.35;;
53207;SDS011;39093;52.788;6.940;2023-08-31T11:55:21;2.58;;;0.77;;
53207;SDS011;39093;52.788;6.940;2023-08-31T11:57:54;7.00;;;1.30;;
53207;SDS011;39093;52.788;6.940;2023-08-31T12:00:21;5.73;;;0.97;;
53207;SDS011;39093;52.788;6.940;2023-08-31T12:02:59;3.33;;;0.80;;
53207;SDS011;39093;52.788;6.940;2023-08-31T12:05:28;6.55;;;1.60;;
53207;SDS011;39093;52.788;6.940;2023-08-31T12:07:55;4.07;;;0.82;;
53207;SDS011;39093;52.788;6.940;2023-08-31T12:10:26;6.68;;;1.17;;
53207;SDS011;39093;52.788;6.940;2023-08-31T12:12:53;6.97;;;1.13;;
53207;SDS011;39093;52.788;6.940;2023-08-31T12:15:34;4.45;;;1.25;;
53207;SDS011;39093;52.788;6.940;2023-08-31T12:18:10;2.63;;;0.80;;
53207;SDS011;39093;52.788;6.940;2023-08-31T12:20:49;5.05;;;0.85;;
53207;SDS011;39093;52.788;6.940;2023-08-31T12:23:17;3.75;;;0.80;;
53207;SDS011;39093;52.788;6.940;2023-08-31T12:25:51;5.07;;;0.95;;
53207;SDS011;39093;52.788;6.940;2023-08-31T12:28:20;2.50;;;0.70;;
53207;SDS011;39093;52.788;6.940;2023-08-31T12:30:49;3.20;;;0.80;;
53207;SDS011;39093;52.788;6.940;2023-08-31T12:33:20;3.58;;;0.90;;
53207;SDS011;39093;52.788;6.940;2023-08-31T12:35:48;3.17;;;0.65;;
53207;SDS011;39093;52.788;6.940;2023-08-31T12:38:15;1.75;;;0.55;;
53207;SDS011;39093;52.788;6.940;2023-08-31T12:40:42;2.72;;;0.85;;
53207;SDS011;39093;52.788;6.940;2023-08-31T12:43:09;2.35;;;0.80;;
53207;SDS011;39093;52.788;6.940;2023-08-31T12:45:36;5.95;;;0.90;;
53207;SDS011;39093;52.788;6.940;2023-08-31T12:48:04;3.70;;;0.73;;
53207;SDS011;39093;52.788;6.940;2023-08-31T12:50:32;2.95;;;0.77;;
53207;SDS011;39093;52.788;6.940;2023-08-31T12:52:59;1.92;;;1.10;;
53207;SDS011;39093;52.788;6.940;2023-08-31T12:55:25;3.58;;;0.98;;
53207;SDS011;39093;52.788;6.940;2023-08-31T12:57:52;2.70;;;0.80;;
53207;SDS011;39093;52.788;6.940;2023-08-31T13:00:19;4.65;;;0.73;;
53207;SDS011;39093;52.788;6.940;2023-08-31T13:02:49;3.72;;;0.93;;
53207;SDS011;39093;52.788;6.940;2023-08-31T13:05:17;1.73;;;0.73;;
53207;SDS011;39093;52.788;6.940;2023-08-31T13:07:44;2.65;;;0.57;;
53207;SDS011;39093;52.788;6.940;2023-08-31T13:10:11;2.53;;;0.77;;
53207;SDS011;39093;52.788;6.940;2023-08-31T13:12:38;2.30;;;1.13;;
53207;SDS011;39093;52.788;6.940;2023-08-31T13:15:05;5.57;;;1.25;;
53207;SDS011;39093;52.788;6.940;2023-08-31T13:17:34;6.50;;;1.15;;
53207;SDS011;39093;52.788;6.940;2023-08-31T13:20:02;4.65;;;1.00;;
53207;SDS011;39093;52.788;6.940;2023-08-31T13:22:30;3.28;;;1.15;;
53207;SDS011;39093;52.788;6.940;2023-08-31T13:24:57;3.80;;;0.80;;
53207;SDS011;39093;52.788;6.940;2023-08-31T13:27:24;3.10;;;0.90;;
53207;SDS011;39093;52.788;6.940;2023-08-31T13:29:51;2.65;;;1.02;;
53207;SDS011;39093;52.788;6.940;2023-08-31T13:32:18;5.10;;;1.00;;
53207;SDS011;39093;52.788;6.940;2023-08-31T13:34:45;1.92;;;0.75;;
53207;SDS011;39093;52.788;6.940;2023-08-31T13:37:12;3.90;;;1.10;;
53207;SDS011;39093;52.788;6.940;2023-08-31T13:39:39;4.53;;;0.73;;
53207;SDS011;39093;52.788;6.940;2023-08-31T13:42:06;4.07;;;0.85;;
53207;SDS011;39093;52.788;6.940;2023-08-31T13:44:34;7.78;;;1.10;;
53207;SDS011;39093;52.788;6.940;2023-08-31T13:47:01;2.05;;;0.82;;
53207;SDS011;39093;52.788;6.940;2023-08-31T13:49:30;2.88;;;0.75;;
53207;SDS011;39093;52.788;6.940;2023-08-31T13:51:59;1.65;;;0.93;;
53207;SDS011;39093;52.788;6.940;2023-08-31T13:54:26;2.78;;;0.93;;
53207;SDS011;39093;52.788;6.940;2023-08-31T13:56:53;3.10;;;0.82;;
53207;SDS011;39093;52.788;6.940;2023-08-31T13:59:20;2.35;;;0.73;;
53207;SDS011;39093;52.788;6.940;2023-08-31T14:01:47;2.95;;;0.52;;
53207;SDS011;39093;52.788;6.940;2023-08-31T14:04:14;1.23;;;0.60;;
53207;SDS011;39093;52.788;6.940;2023-08-31T14:06:41;2.75;;;0.70;;
53207;SDS011;39093;52.788;6.940;2023-08-31T14:09:08;2.42;;;0.70;;
53207;SDS011;39093;52.788;6.940;2023-08-31T14:11:35;1.17;;;0.77;;
53207;SDS011;39093;52.788;6.940;2023-08-31T14:14:03;4.68;;;1.00;;
53207;SDS011;39093;52.788;6.940;2023-08-31T14:16:32;2.92;;;0.90;;
53207;SDS011;39093;52.788;6.940;2023-08-31T14:19:00;2.60;;;0.98;;
53207;SDS011;39093;52.788;6.940;2023-08-31T14:21:27;2.95;;;0.90;;
53207;SDS011;39093;52.788;6.940;2023-08-31T14:23:54;3.65;;;0.90;;
53207;SDS011;39093;52.788;6.940;2023-08-31T14:26:22;3.00;;;0.82;;
53207;SDS011;39093;52.788;6.940;2023-08-31T14:28:53;2.92;;;0.82;;
53207;SDS011;39093;52.788;6.940;2023-08-31T14:31:20;7.80;;;1.27;;
53207;SDS011;39093;52.788;6.940;2023-08-31T14:33:47;1.42;;;0.77;;
53207;SDS011;39093;52.788;6.940;2023-08-31T14:36:15;3.55;;;0.90;;
53207;SDS011;39093;52.788;6.940;2023-08-31T14:38:42;3.00;;;0.80;;
53207;SDS011;39093;52.788;6.940;2023-08-31T14:41:10;4.72;;;0.82;;
53207;SDS011;39093;52.788;6.940;2023-08-31T14:43:37;2.65;;;0.70;;
53207;SDS011;39093;52.788;6.940;2023-08-31T14:46:04;3.28;;;0.88;;
53207;SDS011;39093;52.788;6.940;2023-08-31T14:48:31;3.55;;;1.25;;
53207;SDS011;39093;52.788;6.940;2023-08-31T14:50:58;2.45;;;0.77;;
53207;SDS011;39093;52.788;6.940;2023-08-31T14:53:26;3.35;;;0.80;;
53207;SDS011;39093;52.788;6.940;2023-08-31T14:55:54;3.78;;;0.95;;
53207;SDS011;39093;52.788;6.940;2023-08-31T14:58:21;5.43;;;1.00;;
53207;SDS011;39093;52.788;6.940;2023-08-31T15:00:48;2.90;;;1.15;;
53207;SDS011;39093;52.788;6.940;2023-08-31T15:03:15;3.30;;;0.98;;
53207;SDS011;39093;52.788;6.940;2023-08-31T15:05:42;3.50;;;0.85;;
53207;SDS011;39093;52.788;6.940;2023-08-31T15:08:09;4.60;;;0.82;;
53207;SDS011;39093;52.788;6.940;2023-08-31T15:10:38;3.05;;;1.00;;